createdAt,value
2023-05-04T00:00:10.867Z,25.15
2023-05-04T00:01:10.876Z,25.19
2023-05-04T00:02:10.904Z,25.17
2023-05-04T00:03:10.916Z,25.15
2023-05-04T00:04:11.045Z,25.17
2023-05-04T00:05:10.835Z,25.17
2023-05-04T00:06:10.823Z,25.12
2023-05-04T00:07:10.829Z,25.15
2023-05-04T00:08:10.817Z,25.18
2023-05-04T00:09:10.781Z,25.17
2023-05-04T00:10:10.777Z,25.17
2023-05-04T00:11:10.784Z,25.17
2023-05-04T00:12:10.772Z,25.17
2023-05-04T00:13:10.913Z,25.17
2023-05-04T00:14:10.732Z,25.17
2023-05-04T00:15:10.739Z,25.15
2023-05-04T00:16:11.231Z,25.15
2023-05-04T00:17:10.775Z,25.12
2023-05-04T00:18:10.793Z,25.15
2023-05-04T00:19:10.850Z,25.15
2023-05-04T00:20:10.850Z,25.15
2023-05-04T00:21:10.888Z,25.15
2023-05-04T00:22:10.902Z,25.15
2023-05-04T00:23:10.929Z,25.12
2023-05-04T00:24:10.956Z,25.14
2023-05-04T00:25:11.014Z,25.14
2023-05-04T00:26:11.014Z,25.14
2023-05-04T00:27:11.046Z,25.15
2023-05-04T00:28:11.034Z,25.15
2023-05-04T00:29:11.071Z,25.14
2023-05-04T00:30:11.132Z,25.12
2023-05-04T00:31:11.146Z,25.15
2023-05-04T00:32:11.119Z,25.14
2023-05-04T00:33:11.156Z,25.14
2023-05-04T00:34:11.145Z,25.15
2023-05-04T00:35:11.112Z,25.15
2023-05-04T00:36:11.122Z,25.14
2023-05-04T00:37:11.110Z,25.14
2023-05-04T00:38:11.095Z,25.14
2023-05-04T00:39:11.097Z,25.14
2023-05-04T00:40:11.107Z,25.15
2023-05-04T00:41:11.100Z,25.14
2023-05-04T00:42:11.084Z,25.12
2023-05-04T00:43:11.070Z,25.14
2023-05-04T00:44:11.070Z,25.14
2023-05-04T00:45:11.056Z,25.17
2023-05-04T00:46:11.049Z,25.10
2023-05-04T00:47:11.119Z,25.15
2023-05-04T00:48:11.066Z,25.14
2023-05-04T00:49:11.103Z,25.11
2023-05-04T00:50:11.179Z,25.14
2023-05-04T00:51:11.233Z,25.12
2023-05-04T00:52:11.317Z,25.14
2023-05-04T00:53:11.353Z,25.12
2023-05-04T00:54:11.390Z,25.12
2023-05-04T00:55:11.416Z,25.11
2023-05-04T00:56:11.439Z,25.12
2023-05-04T00:57:11.479Z,25.12
2023-05-04T00:58:11.490Z,25.12
2023-05-04T00:59:11.514Z,25.11
2023-05-04T01:00:11.543Z,25.12
2023-05-04T01:01:11.654Z,25.10
2023-05-04T01:02:11.601Z,25.12
2023-05-04T01:03:11.635Z,25.12
2023-05-04T01:04:11.653Z,25.12
2023-05-04T01:05:11.589Z,25.12
2023-05-04T01:06:11.577Z,25.11
2023-05-04T01:07:11.576Z,25.12
2023-05-04T01:08:11.571Z,25.11
2023-05-04T01:09:11.573Z,25.14
2023-05-04T01:10:11.573Z,25.10
2023-05-04T01:11:11.570Z,25.11
2023-05-04T01:12:11.564Z,25.11
2023-05-04T01:13:11.724Z,25.10
2023-05-04T01:14:11.555Z,25.11
2023-05-04T01:15:11.546Z,25.08
2023-05-04T01:16:11.566Z,25.10
2023-05-04T01:17:11.824Z,25.10
2023-05-04T01:18:11.569Z,25.08
2023-05-04T01:19:11.522Z,25.11
2023-05-04T01:20:11.508Z,25.08
2023-05-04T01:21:11.518Z,25.10
2023-05-04T01:22:11.512Z,25.10
2023-05-04T01:23:11.497Z,25.10
2023-05-04T01:24:11.501Z,25.10
2023-05-04T01:25:11.516Z,25.10
2023-05-04T01:26:11.533Z,25.08
2023-05-04T01:27:11.586Z,25.12
2023-05-04T01:28:11.595Z,25.10
2023-05-04T01:29:11.609Z,25.10
2023-05-04T01:30:11.630Z,25.12
2023-05-04T01:31:11.728Z,25.10
2023-05-04T01:32:11.684Z,25.10
2023-05-04T01:33:11.732Z,25.08
2023-05-04T01:34:11.804Z,25.10
2023-05-04T01:35:11.756Z,25.11
2023-05-04T01:36:11.783Z,25.10
2023-05-04T01:37:11.803Z,25.10
2023-05-04T01:38:11.830Z,25.07
2023-05-04T01:39:11.853Z,25.10
2023-05-04T01:40:11.881Z,25.11
2023-05-04T01:41:11.874Z,25.10
2023-05-04T01:42:11.875Z,25.10
2023-05-04T01:43:11.876Z,25.10
2023-05-04T01:44:11.852Z,25.10
2023-05-04T01:45:11.862Z,25.08
2023-05-04T01:46:11.892Z,25.10
2023-05-04T01:47:11.859Z,25.07
2023-05-04T01:48:11.848Z,25.07
2023-05-04T01:49:11.865Z,25.10
2023-05-04T01:50:11.843Z,25.08
2023-05-04T01:51:11.860Z,25.08
2023-05-04T01:52:11.831Z,25.07
2023-05-04T01:53:11.823Z,25.08
2023-05-04T01:54:11.805Z,25.08
2023-05-04T01:55:11.799Z,25.07
2023-05-04T01:56:11.790Z,25.07
2023-05-04T01:57:11.785Z,25.08
2023-05-04T01:58:11.783Z,25.07
2023-05-04T01:59:11.778Z,25.08
2023-05-04T02:00:11.749Z,25.07
2023-05-04T02:01:11.771Z,25.08
2023-05-04T02:02:11.743Z,25.07
2023-05-04T02:03:11.822Z,25.07
2023-05-04T02:04:11.791Z,25.07
2023-05-04T02:05:11.727Z,25.07
2023-05-04T02:06:11.702Z,25.07
2023-05-04T02:07:11.740Z,25.07
2023-05-04T02:08:11.713Z,25.07
2023-05-04T02:09:11.706Z,25.08
2023-05-04T02:10:11.729Z,25.10
2023-05-04T02:11:11.700Z,25.05
2023-05-04T02:12:11.705Z,25.07
2023-05-04T02:13:11.757Z,25.07
2023-05-04T02:14:11.715Z,25.07
2023-05-04T02:15:11.767Z,25.05
2023-05-04T02:16:11.827Z,25.07
2023-05-04T02:17:11.876Z,25.08
2023-05-04T02:18:12.015Z,25.05
2023-05-04T02:19:11.921Z,25.08
2023-05-04T02:20:11.932Z,25.04
2023-05-04T02:21:11.965Z,25.07
2023-05-04T02:22:12.042Z,25.05
2023-05-04T02:23:12.023Z,25.05
2023-05-04T02:24:12.039Z,25.05
2023-05-04T02:25:12.059Z,25.07
2023-05-04T02:26:12.089Z,25.07
2023-05-04T02:27:12.110Z,25.07
2023-05-04T02:28:12.134Z,25.04
2023-05-04T02:29:12.159Z,25.05
2023-05-04T02:30:12.192Z,25.07
2023-05-04T02:31:12.265Z,25.07
2023-05-04T02:32:12.232Z,25.08
2023-05-04T02:33:12.368Z,25.04
2023-05-04T02:34:12.285Z,25.07
2023-05-04T02:35:12.304Z,25.07
2023-05-04T02:36:12.338Z,25.07
2023-05-04T02:37:12.372Z,25.07
2023-05-04T02:38:12.399Z,25.07
2023-05-04T02:39:12.414Z,25.04
2023-05-04T02:40:12.448Z,25.04
2023-05-04T02:41:12.490Z,25.04
2023-05-04T02:42:12.517Z,25.04
2023-05-04T02:43:12.524Z,25.04
2023-05-04T02:44:12.550Z,25.07
2023-05-04T02:45:12.575Z,25.05
2023-05-04T02:46:12.640Z,25.04
2023-05-04T02:47:12.609Z,25.04
2023-05-04T02:48:12.633Z,25.02
2023-05-04T02:49:12.659Z,25.05
2023-05-04T02:50:12.714Z,25.05
2023-05-04T02:51:12.719Z,25.04
2023-05-04T02:52:12.759Z,25.05
2023-05-04T02:53:12.778Z,25.04
2023-05-04T02:54:12.807Z,25.04
2023-05-04T02:55:12.826Z,25.04
2023-05-04T02:56:12.851Z,25.04
2023-05-04T02:57:12.885Z,25.04
2023-05-04T02:58:12.938Z,25.05
2023-05-04T02:59:13.013Z,25.02
2023-05-04T03:00:13.060Z,25.02
2023-05-04T03:01:13.191Z,25.04
2023-05-04T03:02:13.135Z,25.04
2023-05-04T03:03:13.153Z,25.05
2023-05-04T03:04:13.225Z,25.04
2023-05-04T03:05:13.201Z,25.02
2023-05-04T03:06:13.221Z,25.04
2023-05-04T03:07:13.272Z,25.01
2023-05-04T03:08:13.277Z,25.04
2023-05-04T03:09:13.314Z,25.04
2023-05-04T03:10:13.331Z,25.04
2023-05-04T03:11:13.371Z,25.02
2023-05-04T03:12:13.390Z,25.04
2023-05-04T03:13:13.459Z,25.02
2023-05-04T03:14:13.443Z,24.99
2023-05-04T03:15:13.469Z,25.02
2023-05-04T03:16:13.517Z,25.04
2023-05-04T03:17:13.508Z,25.01
2023-05-04T03:18:13.552Z,25.05
2023-05-04T03:19:13.548Z,25.04
2023-05-04T03:20:13.587Z,25.01
2023-05-04T03:21:13.604Z,25.02
2023-05-04T03:22:13.641Z,25.02
2023-05-04T03:23:13.662Z,25.02
2023-05-04T03:24:13.678Z,25.04
2023-05-04T03:25:13.692Z,25.02
2023-05-04T03:26:13.709Z,25.01
2023-05-04T03:27:13.727Z,24.99
2023-05-04T03:28:13.756Z,24.99
2023-05-04T03:29:13.782Z,25.04
2023-05-04T03:30:13.788Z,25.02
2023-05-04T03:31:13.990Z,24.99
2023-05-04T03:32:13.920Z,25.01
2023-05-04T03:33:13.853Z,25.01
2023-05-04T03:34:13.884Z,25.04
2023-05-04T03:35:13.903Z,25.02
2023-05-04T03:36:13.931Z,25.01
2023-05-04T03:37:13.967Z,25.01
2023-05-04T03:38:13.976Z,25.01
2023-05-04T03:39:13.998Z,25.01
2023-05-04T03:40:14.019Z,24.98
2023-05-04T03:41:14.041Z,25.01
2023-05-04T03:42:14.069Z,25.04
2023-05-04T03:43:14.093Z,24.99
2023-05-04T03:44:14.120Z,25.01
2023-05-04T03:45:14.128Z,25.01
2023-05-04T03:46:14.220Z,24.99
2023-05-04T03:47:14.203Z,25.02
2023-05-04T03:48:14.204Z,24.99
2023-05-04T03:49:14.230Z,24.99
2023-05-04T03:50:14.250Z,24.99
2023-05-04T03:51:14.275Z,25.02
2023-05-04T03:52:14.304Z,24.99
2023-05-04T03:53:14.329Z,24.99
2023-05-04T03:54:14.353Z,25.01
2023-05-04T03:55:14.383Z,25.01
2023-05-04T03:56:14.424Z,25.01
2023-05-04T03:57:14.400Z,24.97
2023-05-04T03:58:14.454Z,24.99
2023-05-04T03:59:14.380Z,24.99
2023-05-04T04:00:14.386Z,24.99
2023-05-04T04:01:14.357Z,25.01
2023-05-04T04:02:14.384Z,24.99
2023-05-04T04:03:14.446Z,24.99
2023-05-04T04:04:14.376Z,25.01
2023-05-04T04:05:14.336Z,24.99
2023-05-04T04:06:14.331Z,25.01
2023-05-04T04:07:14.351Z,24.98
2023-05-04T04:08:14.376Z,24.98
2023-05-04T04:09:14.309Z,24.98
2023-05-04T04:10:14.302Z,24.98
2023-05-04T04:11:14.294Z,24.97
2023-05-04T04:12:14.320Z,24.98
2023-05-04T04:13:14.386Z,24.98
2023-05-04T04:14:14.327Z,24.98
2023-05-04T04:15:14.365Z,24.97
2023-05-04T04:16:14.435Z,24.97
2023-05-04T04:17:14.424Z,24.97
2023-05-04T04:18:14.448Z,24.98
2023-05-04T04:19:14.473Z,24.97
2023-05-04T04:20:14.502Z,24.98
2023-05-04T04:21:14.517Z,25.01
2023-05-04T04:22:14.558Z,24.98
2023-05-04T04:23:14.591Z,25.01
2023-05-04T04:24:14.599Z,24.98
2023-05-04T04:25:14.627Z,24.97
2023-05-04T04:26:14.652Z,24.99
2023-05-04T04:27:14.687Z,24.99
2023-05-04T04:28:14.712Z,25.01
2023-05-04T04:29:14.737Z,24.99
2023-05-04T04:30:14.767Z,25.01
2023-05-04T04:31:14.796Z,24.98
2023-05-04T04:32:14.804Z,25.01
2023-05-04T04:33:14.833Z,24.97
2023-05-04T04:34:14.857Z,24.98
2023-05-04T04:35:14.901Z,25.01
2023-05-04T04:36:14.917Z,25.02
2023-05-04T04:37:14.947Z,24.98
2023-05-04T04:38:14.968Z,24.99
2023-05-04T04:39:15.013Z,24.97
2023-05-04T04:40:15.019Z,24.99
2023-05-04T04:41:15.072Z,24.99
2023-05-04T04:42:15.096Z,25.01
2023-05-04T04:43:15.127Z,24.98
2023-05-04T04:44:15.160Z,24.95
2023-05-04T04:45:15.191Z,24.98
2023-05-04T04:46:15.324Z,24.99
2023-05-04T04:47:15.303Z,24.98
2023-05-04T04:48:15.316Z,25.01
2023-05-04T04:49:15.302Z,24.97
2023-05-04T04:50:15.297Z,24.99
2023-05-04T04:51:15.299Z,24.99
2023-05-04T04:52:15.719Z,24.98
2023-05-04T04:53:15.290Z,24.98
2023-05-04T04:54:15.292Z,24.99
2023-05-04T04:55:15.300Z,24.98
2023-05-04T04:56:15.280Z,24.99
2023-05-04T04:57:15.280Z,24.99
2023-05-04T04:58:15.285Z,24.98
2023-05-04T04:59:15.263Z,25.01
2023-05-04T05:00:15.267Z,24.98
2023-05-04T05:01:15.272Z,24.98
2023-05-04T05:02:15.253Z,24.98
2023-05-04T05:03:15.255Z,24.98
2023-05-04T05:04:15.293Z,24.99
2023-05-04T05:05:15.351Z,25.01
2023-05-04T05:06:15.227Z,24.97
2023-05-04T05:07:15.210Z,24.97
2023-05-04T05:08:15.231Z,25.01
2023-05-04T05:09:15.246Z,24.98
2023-05-04T05:10:15.276Z,24.98
2023-05-04T05:11:15.306Z,24.99
2023-05-04T05:12:15.356Z,24.98
2023-05-04T05:13:15.409Z,24.99
2023-05-04T05:14:15.372Z,24.97
2023-05-04T05:15:15.320Z,24.98
2023-05-04T05:16:15.361Z,24.99
2023-05-04T05:17:15.323Z,24.99
2023-05-04T05:18:15.317Z,25.02
2023-05-04T05:19:15.313Z,24.99
2023-05-04T05:20:15.368Z,24.99
2023-05-04T05:21:15.294Z,24.98
2023-05-04T05:22:15.295Z,25.02
2023-05-04T05:23:15.301Z,24.99
2023-05-04T05:24:15.300Z,24.99
2023-05-04T05:25:15.297Z,24.99
2023-05-04T05:26:15.299Z,24.99
2023-05-04T05:27:15.275Z,24.99
2023-05-04T05:28:15.296Z,24.99
2023-05-04T05:29:15.279Z,24.98
2023-05-04T05:30:15.309Z,24.98
2023-05-04T05:31:15.401Z,24.98
2023-05-04T05:32:15.436Z,24.98
2023-05-04T05:33:15.469Z,24.99
2023-05-04T05:34:15.406Z,24.98
2023-05-04T05:35:15.472Z,24.99
2023-05-04T05:36:15.481Z,25.01
2023-05-04T05:37:15.483Z,25.05
2023-05-04T05:38:15.544Z,25.05
2023-05-04T05:39:15.528Z,25.12
2023-05-04T05:40:15.558Z,25.17
2023-05-04T05:41:15.609Z,25.22
2023-05-04T05:42:15.673Z,25.26
2023-05-04T05:43:15.597Z,25.32
2023-05-04T05:44:15.612Z,25.35
2023-05-04T05:45:15.642Z,25.39
2023-05-04T05:46:15.702Z,25.42
2023-05-04T05:47:15.650Z,25.46
2023-05-04T05:48:15.645Z,25.46
2023-05-04T05:49:15.653Z,25.52
2023-05-04T05:50:16.255Z,25.53
2023-05-04T05:51:15.676Z,25.60
2023-05-04T05:52:15.688Z,25.66
2023-05-04T05:53:15.691Z,25.67
2023-05-04T05:54:15.680Z,25.70
2023-05-04T05:55:15.717Z,25.70
2023-05-04T05:56:15.677Z,25.69
2023-05-04T05:57:15.645Z,25.70
2023-05-04T05:58:15.712Z,25.74
2023-05-04T05:59:15.606Z,25.73
2023-05-04T06:00:15.614Z,25.73
2023-05-04T06:01:15.594Z,25.76
2023-05-04T06:02:15.633Z,25.77
2023-05-04T06:03:15.704Z,25.77
2023-05-04T06:04:15.690Z,25.83
2023-05-04T06:05:15.563Z,25.83
2023-05-04T06:06:15.540Z,25.83
2023-05-04T06:07:15.588Z,25.84
2023-05-04T06:08:15.573Z,25.84
2023-05-04T06:09:15.491Z,25.84
2023-05-04T06:10:15.489Z,25.85
2023-05-04T06:11:15.500Z,25.85
2023-05-04T06:12:15.465Z,25.88
2023-05-04T06:13:15.502Z,25.87
2023-05-04T06:14:15.471Z,25.91
2023-05-04T06:15:15.418Z,25.89
2023-05-04T06:16:15.439Z,25.92
2023-05-04T06:17:15.399Z,25.95
2023-05-04T06:18:15.385Z,25.95
2023-05-04T06:19:15.357Z,25.95
2023-05-04T06:20:15.352Z,25.97
2023-05-04T06:21:15.365Z,25.97
2023-05-04T06:22:15.829Z,25.99
2023-05-04T06:23:15.332Z,25.99
2023-05-04T06:24:15.295Z,26.01
2023-05-04T06:25:15.362Z,26.04
2023-05-04T06:26:15.273Z,26.01
2023-05-04T06:27:15.301Z,26.05
2023-05-04T06:28:15.230Z,26.02
2023-05-04T06:29:15.265Z,26.06
2023-05-04T06:30:15.198Z,26.06
2023-05-04T06:31:15.264Z,26.08
2023-05-04T06:32:15.229Z,26.09
2023-05-04T06:33:15.146Z,26.09
2023-05-04T06:34:15.137Z,26.12
2023-05-04T06:35:15.104Z,26.15
2023-05-04T06:36:15.084Z,26.15
2023-05-04T06:37:16.213Z,26.16
2023-05-04T06:38:15.064Z,26.19
2023-05-04T06:39:15.060Z,26.19
2023-05-04T06:40:15.049Z,26.19
2023-05-04T06:41:15.066Z,26.23
2023-05-04T06:42:15.094Z,26.22
2023-05-04T06:43:15.094Z,26.21
2023-05-04T06:44:15.125Z,26.25
2023-05-04T06:45:15.176Z,26.29
2023-05-04T06:46:15.287Z,26.32
2023-05-04T06:47:15.228Z,26.32
2023-05-04T06:48:15.272Z,26.35
2023-05-04T06:49:15.308Z,26.33
2023-05-04T06:50:15.333Z,26.35
2023-05-04T06:51:15.386Z,26.39
2023-05-04T06:52:15.434Z,26.39
2023-05-04T06:53:15.480Z,26.40
2023-05-04T06:54:15.520Z,26.40
2023-05-04T06:55:15.580Z,26.43
2023-05-04T06:56:15.613Z,26.44
2023-05-04T06:57:15.675Z,26.46
2023-05-04T06:58:15.693Z,26.46
2023-05-04T06:59:15.761Z,26.47
2023-05-04T07:00:15.787Z,26.46
2023-05-04T07:01:18.294Z,26.50
2023-05-04T07:02:15.808Z,26.51
2023-05-04T07:03:15.979Z,26.54
2023-05-04T07:04:15.766Z,26.56
2023-05-04T07:05:15.737Z,26.56
2023-05-04T07:06:15.801Z,26.57
2023-05-04T07:07:15.708Z,26.56
2023-05-04T07:08:15.701Z,26.59
2023-05-04T07:09:15.696Z,26.56
2023-05-04T07:10:15.671Z,26.47
2023-05-04T07:11:15.675Z,26.40
2023-05-04T07:12:15.639Z,26.29
2023-05-04T07:13:15.697Z,26.19
2023-05-04T07:14:15.614Z,26.11
2023-05-04T07:15:15.600Z,26.02
2023-05-04T07:16:15.627Z,25.95
2023-05-04T07:17:15.607Z,25.87
2023-05-04T07:18:15.567Z,25.79
2023-05-04T07:19:15.584Z,25.73
2023-05-04T07:20:15.546Z,25.67
2023-05-04T07:21:27.608Z,25.67
2023-05-04T07:22:16.672Z,25.70
2023-05-04T07:23:15.527Z,25.73
2023-05-04T07:24:15.490Z,25.77
2023-05-04T07:25:15.479Z,25.80
2023-05-04T07:26:15.454Z,25.85
2023-05-04T07:27:15.460Z,25.88
2023-05-04T07:28:15.460Z,25.91
2023-05-04T07:29:15.570Z,25.94
2023-05-04T07:30:15.417Z,25.97
2023-05-04T07:31:15.401Z,26.01
2023-05-04T07:32:15.467Z,26.04
2023-05-04T07:33:15.423Z,26.02
2023-05-04T07:34:15.388Z,26.04
2023-05-04T07:35:15.334Z,26.01
2023-05-04T07:36:15.368Z,25.98
2023-05-04T07:37:15.312Z,25.99
2023-05-04T07:38:15.308Z,25.94
2023-05-04T07:39:15.314Z,25.97
2023-05-04T07:40:15.322Z,25.95
2023-05-04T07:41:15.241Z,25.98
2023-05-04T07:42:15.248Z,26.01
2023-05-04T07:43:15.257Z,26.04
2023-05-04T07:44:15.224Z,26.08
2023-05-04T07:45:15.183Z,26.09
2023-05-04T07:46:15.199Z,26.11
2023-05-04T07:47:15.167Z,26.14
2023-05-04T07:48:15.835Z,26.19
2023-05-04T07:49:15.113Z,26.18
2023-05-04T07:50:15.077Z,26.21
2023-05-04T07:51:15.065Z,26.23
2023-05-04T07:52:15.076Z,26.23
2023-05-04T07:53:15.031Z,26.25
2023-05-04T07:54:14.998Z,26.26
2023-05-04T07:55:15.001Z,26.28
2023-05-04T07:56:15.081Z,26.28
2023-05-04T07:57:14.948Z,26.31
2023-05-04T07:58:15.088Z,26.32
2023-05-04T07:59:14.896Z,26.33
2023-05-04T08:00:15.112Z,26.35
2023-05-04T08:01:14.887Z,26.36
2023-05-04T08:02:14.871Z,26.32
2023-05-04T08:03:14.944Z,26.33
2023-05-04T08:04:14.880Z,26.35
2023-05-04T08:05:15.078Z,26.38
2023-05-04T08:06:14.945Z,26.38
2023-05-04T08:07:15.342Z,26.38
2023-05-04T08:08:15.048Z,26.42
2023-05-04T08:09:15.029Z,26.39
2023-05-04T08:10:15.050Z,26.42
2023-05-04T08:11:20.399Z,26.46
2023-05-04T08:12:16.085Z,26.46
2023-05-04T08:13:15.205Z,26.47
2023-05-04T08:14:15.233Z,26.50
2023-05-04T08:15:15.036Z,26.51
2023-05-04T08:16:15.036Z,26.50
2023-05-04T08:17:14.987Z,26.50
2023-05-04T08:18:14.962Z,26.51
2023-05-04T08:19:14.937Z,26.53
2023-05-04T08:20:14.927Z,26.51
2023-05-04T08:21:15.024Z,26.51
2023-05-04T08:22:14.903Z,26.54
2023-05-04T08:23:14.872Z,26.57
2023-05-04T08:24:14.836Z,26.56
2023-05-04T08:25:14.893Z,26.61
2023-05-04T08:26:14.802Z,26.66
2023-05-04T08:27:14.799Z,26.70
2023-05-04T08:28:14.775Z,26.68
2023-05-04T08:29:14.747Z,26.73
2023-05-04T08:30:14.765Z,26.75
2023-05-04T08:31:14.750Z,26.74
2023-05-04T08:32:14.687Z,26.71
2023-05-04T08:33:14.715Z,26.73
2023-05-04T08:34:14.665Z,26.74
2023-05-04T08:35:14.639Z,26.74
2023-05-04T08:36:14.595Z,26.71
2023-05-04T08:37:14.724Z,26.73
2023-05-04T08:38:14.574Z,26.70
2023-05-04T08:39:14.566Z,26.68
2023-05-04T08:40:14.571Z,26.68
2023-05-04T08:41:14.601Z,26.71
2023-05-04T08:42:14.610Z,26.70
2023-05-04T08:43:14.591Z,26.70
2023-05-04T08:44:14.565Z,26.68
2023-05-04T08:45:14.573Z,26.70
2023-05-04T08:46:14.567Z,26.68
2023-05-04T08:47:14.583Z,26.68
2023-05-04T08:48:14.825Z,26.67
2023-05-04T08:49:14.683Z,26.68
2023-05-04T08:50:14.730Z,26.68
2023-05-04T08:51:14.797Z,26.70
2023-05-04T08:52:14.826Z,26.73
2023-05-04T08:53:14.884Z,26.77
2023-05-04T08:54:14.900Z,26.80
2023-05-04T08:55:14.929Z,26.83
2023-05-04T08:56:14.965Z,26.81
2023-05-04T08:57:15.008Z,26.75
2023-05-04T08:58:15.069Z,26.75
2023-05-04T08:59:15.076Z,26.75
2023-05-04T09:00:15.108Z,26.75
2023-05-04T09:01:15.215Z,26.75
2023-05-04T09:02:15.293Z,26.74
2023-05-04T09:03:15.202Z,26.73
2023-05-04T09:04:15.116Z,26.75
2023-05-04T09:05:15.059Z,26.73
2023-05-04T09:06:15.036Z,26.75
2023-05-04T09:07:15.047Z,26.74
2023-05-04T09:08:14.983Z,26.75
2023-05-04T09:09:14.968Z,26.75
2023-05-04T09:10:14.989Z,26.75
2023-05-04T09:11:14.925Z,26.71
2023-05-04T09:12:14.921Z,26.73
2023-05-04T09:13:14.957Z,26.74
2023-05-04T09:14:14.860Z,26.74
2023-05-04T09:15:14.828Z,26.74
2023-05-04T09:16:14.944Z,26.75
2023-05-04T09:17:14.800Z,26.78
2023-05-04T09:18:14.849Z,26.80
2023-05-04T09:19:14.797Z,26.73
2023-05-04T09:20:14.892Z,26.77
2023-05-04T09:21:14.896Z,26.77
2023-05-04T09:22:14.920Z,26.78
2023-05-04T09:23:14.941Z,26.83
2023-05-04T09:24:14.949Z,26.88
2023-05-04T09:25:14.953Z,26.92
2023-05-04T09:26:14.980Z,26.95
2023-05-04T09:27:14.950Z,26.95
2023-05-04T09:28:14.981Z,26.97
2023-05-04T09:29:14.966Z,26.98
2023-05-04T09:30:14.887Z,27.02
2023-05-04T09:31:14.898Z,27.03
2023-05-04T09:32:14.829Z,27.03
2023-05-04T09:33:14.810Z,27.09
2023-05-04T09:34:14.849Z,27.09
2023-05-04T09:35:29.290Z,27.13
2023-05-04T09:36:15.737Z,27.15
2023-05-04T09:37:14.679Z,27.18
2023-05-04T09:38:14.649Z,27.18
2023-05-04T09:39:14.714Z,27.22
2023-05-04T09:40:14.619Z,27.22
2023-05-04T09:41:14.601Z,27.24
2023-05-04T09:42:14.532Z,27.28
2023-05-04T09:43:14.529Z,27.28
2023-05-04T09:44:14.509Z,27.30
2023-05-04T09:45:14.467Z,27.33
2023-05-04T09:46:14.468Z,27.32
2023-05-04T09:47:14.437Z,27.30
2023-05-04T09:48:14.371Z,27.30
2023-05-04T09:49:14.357Z,27.32
2023-05-04T09:50:14.342Z,27.29
2023-05-04T09:51:14.332Z,27.29
2023-05-04T09:52:14.265Z,27.28
2023-05-04T09:53:14.773Z,27.25
2023-05-04T09:54:14.229Z,27.21
2023-05-04T09:55:14.161Z,27.25
2023-05-04T09:56:14.150Z,27.21
2023-05-04T09:57:14.101Z,27.21
2023-05-04T09:58:14.062Z,27.19
2023-05-04T09:59:14.117Z,27.19
2023-05-04T10:00:14.006Z,27.18
2023-05-04T10:01:14.044Z,27.18
2023-05-04T10:02:21.809Z,27.16
2023-05-04T10:03:14.940Z,27.12
2023-05-04T10:04:13.911Z,27.15
2023-05-04T10:05:13.947Z,27.13
2023-05-04T10:06:13.855Z,27.13
2023-05-04T10:07:13.852Z,27.15
2023-05-04T10:08:13.826Z,27.12
2023-05-04T10:09:13.785Z,27.11
2023-05-04T10:10:13.803Z,27.13
2023-05-04T10:11:13.731Z,27.12
2023-05-04T10:12:13.699Z,27.12
2023-05-04T10:13:13.715Z,27.13
2023-05-04T10:14:13.735Z,27.11
2023-05-04T10:15:13.733Z,27.12
2023-05-04T10:16:13.772Z,27.11
2023-05-04T10:17:13.981Z,27.12
2023-05-04T10:18:13.694Z,27.11
2023-05-04T10:19:13.665Z,27.11
2023-05-04T10:20:13.702Z,27.09
2023-05-04T10:21:13.646Z,27.09
2023-05-04T10:22:13.634Z,27.11
2023-05-04T10:23:13.563Z,27.11
2023-05-04T10:24:13.531Z,27.09
2023-05-04T10:25:13.502Z,27.11
2023-05-04T10:26:13.488Z,27.09
2023-05-04T10:27:13.508Z,27.09
2023-05-04T10:28:13.442Z,27.11
2023-05-04T10:29:13.468Z,27.09
2023-05-04T10:30:13.456Z,27.08
2023-05-04T10:31:13.463Z,27.09
2023-05-04T10:32:13.456Z,27.11
2023-05-04T10:33:13.474Z,27.09
2023-05-04T10:34:13.517Z,27.11
2023-05-04T10:35:13.518Z,27.11
2023-05-04T10:36:13.645Z,27.08
2023-05-04T10:37:13.605Z,27.12
2023-05-04T10:38:13.588Z,27.11
2023-05-04T10:39:13.625Z,27.09
2023-05-04T10:40:13.641Z,27.08
2023-05-04T10:41:13.674Z,27.11
2023-05-04T10:42:13.635Z,27.08
2023-05-04T10:43:13.631Z,27.11
2023-05-04T10:44:13.600Z,27.09
2023-05-04T10:45:13.572Z,27.12
2023-05-04T10:46:13.619Z,27.11
2023-05-04T10:47:13.566Z,27.09
2023-05-04T10:48:15.315Z,27.12
2023-05-04T10:49:13.522Z,27.12
2023-05-04T10:50:13.500Z,27.13
2023-05-04T10:51:13.403Z,27.12
2023-05-04T10:52:13.407Z,27.13
2023-05-04T10:53:13.375Z,27.12
2023-05-04T10:54:13.350Z,27.13
2023-05-04T10:55:13.310Z,27.11
2023-05-04T10:56:13.277Z,27.13
2023-05-04T10:57:13.249Z,27.12
2023-05-04T10:58:13.220Z,27.15
2023-05-04T10:59:13.225Z,27.15
2023-05-04T11:00:13.201Z,27.15
2023-05-04T11:01:13.201Z,27.13
2023-05-04T11:02:13.149Z,27.15
2023-05-04T11:03:13.187Z,27.15
2023-05-04T11:04:13.076Z,27.16
2023-05-04T11:05:13.054Z,27.16
2023-05-04T11:06:13.067Z,27.18
2023-05-04T11:07:13.040Z,27.16
2023-05-04T11:08:13.000Z,27.18
2023-05-04T11:09:12.988Z,27.18
2023-05-04T11:10:13.061Z,27.18
2023-05-04T11:11:12.902Z,27.18
2023-05-04T11:12:12.856Z,27.16
2023-05-04T11:13:12.877Z,27.19
2023-05-04T11:14:12.871Z,27.19
2023-05-04T11:15:12.882Z,27.21
2023-05-04T11:16:12.915Z,27.21
2023-05-04T11:17:26.644Z,27.19
2023-05-04T11:18:13.910Z,27.21
2023-05-04T11:19:12.958Z,27.21
2023-05-04T11:20:12.850Z,27.21
2023-05-04T11:21:12.826Z,27.21
2023-05-04T11:22:12.778Z,27.19
2023-05-04T11:23:12.765Z,27.22
2023-05-04T11:24:12.760Z,27.22
2023-05-04T11:25:12.717Z,27.21
2023-05-04T11:26:12.828Z,27.22
2023-05-04T11:27:12.704Z,27.21
2023-05-04T11:28:14.627Z,27.21
2023-05-04T11:29:12.828Z,27.22
2023-05-04T11:30:12.829Z,27.24
2023-05-04T11:31:12.636Z,27.24
2023-05-04T11:32:12.552Z,27.24
2023-05-04T11:33:12.589Z,27.22
2023-05-04T11:34:12.667Z,27.24
2023-05-04T11:35:12.627Z,27.26
2023-05-04T11:36:12.600Z,27.25
2023-05-04T11:37:12.620Z,27.22
2023-05-04T11:38:12.624Z,27.26
2023-05-04T11:39:12.798Z,27.28
2023-05-04T11:40:12.781Z,27.26
2023-05-04T11:41:12.710Z,27.28
2023-05-04T11:42:12.677Z,27.26
2023-05-04T11:43:12.709Z,27.26
2023-05-04T11:44:12.849Z,27.29
2023-05-04T11:45:12.756Z,27.28
2023-05-04T11:46:12.967Z,27.28
2023-05-04T11:47:12.749Z,27.29
2023-05-04T11:48:12.849Z,27.29
2023-05-04T11:49:12.771Z,27.26
2023-05-04T11:50:12.848Z,27.29
2023-05-04T11:51:12.780Z,27.28
2023-05-04T11:52:12.805Z,27.26
2023-05-04T11:53:12.802Z,27.28
2023-05-04T11:54:12.962Z,27.29
2023-05-04T11:55:12.823Z,27.30
2023-05-04T11:56:12.823Z,27.28
2023-05-04T11:57:12.829Z,27.29
2023-05-04T11:58:12.803Z,27.28
2023-05-04T11:59:13.017Z,27.29
2023-05-04T12:00:12.883Z,27.29
2023-05-04T12:01:12.858Z,27.32
2023-05-04T12:02:12.898Z,27.29
2023-05-04T12:03:12.916Z,27.29
2023-05-04T12:04:12.914Z,27.28
2023-05-04T12:05:12.865Z,27.28
2023-05-04T12:06:12.842Z,27.30
2023-05-04T12:07:12.828Z,27.30
2023-05-04T12:08:12.853Z,27.29
2023-05-04T12:09:12.894Z,27.28
2023-05-04T12:10:12.967Z,27.29
2023-05-04T12:11:12.892Z,27.29
2023-05-04T12:12:12.881Z,27.30
2023-05-04T12:13:12.987Z,27.32
2023-05-04T12:14:12.895Z,27.30
2023-05-04T12:15:12.991Z,27.28
2023-05-04T12:16:12.971Z,27.29
2023-05-04T12:17:12.901Z,27.30
2023-05-04T12:18:13.030Z,27.29
2023-05-04T12:19:13.256Z,27.30
2023-05-04T12:20:13.007Z,27.30
2023-05-04T12:21:12.933Z,27.32
2023-05-04T12:22:12.939Z,27.28
2023-05-04T12:23:12.953Z,27.30
2023-05-04T12:24:12.979Z,27.29
2023-05-04T12:25:12.975Z,27.29
2023-05-04T12:26:13.032Z,27.32
2023-05-04T12:27:12.983Z,27.32
2023-05-04T12:28:13.017Z,27.32
2023-05-04T12:29:12.997Z,27.30
2023-05-04T12:30:13.093Z,27.30
2023-05-04T12:31:13.114Z,27.32
2023-05-04T12:32:13.107Z,27.30
2023-05-04T12:33:13.109Z,27.32
2023-05-04T12:34:13.050Z,27.32
2023-05-04T12:35:13.038Z,27.30
2023-05-04T12:36:13.024Z,27.32
2023-05-04T12:37:13.033Z,27.30
2023-05-04T12:38:13.075Z,27.29
2023-05-04T12:39:13.355Z,27.33
2023-05-04T12:40:25.097Z,27.32
2023-05-04T12:41:14.028Z,27.30
2023-05-04T12:42:12.993Z,27.30
2023-05-04T12:43:12.949Z,27.30
2023-05-04T12:44:13.018Z,27.30
2023-05-04T12:45:12.917Z,27.32
2023-05-04T12:46:12.954Z,27.29
2023-05-04T12:47:12.862Z,27.32
2023-05-04T12:48:12.885Z,27.29
2023-05-04T12:49:12.845Z,27.30
2023-05-04T12:50:12.795Z,27.33
2023-05-04T12:51:12.733Z,27.29
2023-05-04T12:52:12.710Z,27.32